Map

Track Data

SID SEASON NUMBER BASIN SUBBASIN NAME ISO_TIME NATURE LAT LON WMO_WIND WMO_PRES WMO_AGENCY TRACK_TYPE DIST2LAND LANDFALL IFLAG USA_AGENCY USA_ATCF_ID USA_LAT USA_LON USA_RECORD USA_STATUS USA_WIND USA_PRES USA_SSHS USA_R34_NE USA_R34_SE USA_R34_SW USA_R34_NW USA_R50_NE USA_R50_SE USA_R50_SW USA_R50_NW USA_R64_NE USA_R64_SE USA_R64_SW USA_R64_NW USA_POCI USA_ROCI USA_RMW USA_EYE TOKYO_LAT TOKYO_LON TOKYO_GRADE TOKYO_WIND TOKYO_PRES TOKYO_R50_DIR TOKYO_R50_LONG TOKYO_R50_SHORT TOKYO_R30_DIR TOKYO_R30_LONG TOKYO_R30_SHORT TOKYO_LAND CMA_LAT CMA_LON CMA_CAT CMA_WIND CMA_PRES HKO_LAT HKO_LON HKO_CAT HKO_WIND HKO_PRES NEWDELHI_LAT NEWDELHI_LON NEWDELHI_GRADE NEWDELHI_WIND NEWDELHI_PRES NEWDELHI_CI NEWDELHI_DP NEWDELHI_POCI REUNION_LAT REUNION_LON REUNION_TYPE REUNION_WIND REUNION_PRES REUNION_TNUM REUNION_CI REUNION_RMW REUNION_R34_NE REUNION_R34_SE REUNION_R34_SW REUNION_R34_NW REUNION_R50_NE REUNION_R50_SE REUNION_R50_SW REUNION_R50_NW REUNION_R64_NE REUNION_R64_SE REUNION_R64_SW REUNION_R64_NW BOM_LAT BOM_LON BOM_TYPE BOM_WIND BOM_PRES BOM_TNUM BOM_CI BOM_RMW BOM_R34_NE BOM_R34_SE BOM_R34_SW BOM_R34_NW BOM_R50_NE BOM_R50_SE BOM_R50_SW BOM_R50_NW BOM_R64_NE BOM_R64_SE BOM_R64_SW BOM_R64_NW BOM_ROCI BOM_POCI BOM_EYE BOM_POS_METHOD BOM_PRES_METHOD NADI_LAT NADI_LON NADI_CAT NADI_WIND NADI_PRES WELLINGTON_LAT WELLINGTON_LON WELLINGTON_WIND WELLINGTON_PRES DS824_LAT DS824_LON DS824_STAGE DS824_WIND DS824_PRES TD9636_LAT TD9636_LON TD9636_STAGE TD9636_WIND TD9636_PRES TD9635_LAT TD9635_LON TD9635_WIND TD9635_PRES TD9635_ROCI NEUMANN_LAT NEUMANN_LON NEUMANN_CLASS NEUMANN_WIND NEUMANN_PRES MLC_LAT MLC_LON MLC_CLASS MLC_WIND MLC_PRES USA_GUST BOM_GUST BOM_GUST_PER REUNION_GUST REUNION_GUST_PER USA_SEAHGT USA_SEARAD_NE USA_SEARAD_SE USA_SEARAD_SW USA_SEARAD_NW STORM_SPEED STORM_DIR
1915253N22145 1915 33 WP MM NOT_NAMED 1915-09-10 10:00:00 NR 21.8000 145.200 main 1550 1550 __________O___ -1 21.8000 145.200 7 2 329
1915253N22145 1915 33 WP MM NOT_NAMED 1915-09-10 12:00:00 NR 21.8478 145.163 main 1550 1536 __________P___ -1 21.8478 145.163 7 2 324
1915253N22145 1915 33 WP MM NOT_NAMED 1915-09-10 15:00:00 NR 21.9204 145.103 main 1536 1523 __________P___ -1 21.9204 145.103 7 2 319
1915253N22145 1915 33 WP MM NOT_NAMED 1915-09-10 18:00:00 NR 21.9950 145.030 main 1523 1509 __________P___ -1 21.9950 145.030 7 2 315
1915253N22145 1915 33 WP MM NOT_NAMED 1915-09-10 21:00:00 NR 22.0730 144.937 main 1509 1509 __________P___ -1 22.0730 144.937 7 2 312
1915253N22145 1915 33 WP MM NOT_NAMED 1915-09-10 22:00:00 NR 22.1000 144.900 main 1509 1495 __________O___ -1 22.1000 144.900 7 3 307
1915253N22145 1915 33 WP MM NOT_NAMED 1915-09-11 00:00:00 NR 22.1557 144.817 main 1495 1492 __________P___ -1 22.1557 144.817 7 3 305
1915253N22145 1915 33 WP MM NOT_NAMED 1915-09-11 03:00:00 NR 22.2455 144.674 main 1492 1475 __________P___ -1 22.2455 144.674 7 3 304
1915253N22145 1915 33 WP MM NOT_NAMED 1915-09-11 06:00:00 NR 22.3455 144.516 main 1475 1451 __________P___ -1 22.3455 144.516 7 4 306
1915253N22145 1915 33 WP MM NOT_NAMED 1915-09-11 09:00:00 NR 22.4587 144.354 main 1451 1448 __________P___ -1 22.4587 144.354 7 4 308
1915253N22145 1915 33 WP MM NOT_NAMED 1915-09-11 10:00:00 NR 22.5000 144.300 main 1448 1434 __________O___ -1 22.5000 144.300 7 4 311
1915253N22145 1915 33 WP MM NOT_NAMED 1915-09-11 12:00:00 NR 22.5780 144.205 main 1434 1421 __________P___ -1 22.5780 144.205 7 4 314
1915253N22145 1915 33 WP MM NOT_NAMED 1915-09-11 15:00:00 NR 22.7075 144.063 main 1421 1394 __________P___ -1 22.7075 144.063 7 4 316
1915253N22145 1915 33 WP MM NOT_NAMED 1915-09-11 18:00:00 NR 22.8574 143.915 main 1394 1380 __________P___ -1 22.8574 143.915 7 4 319
1915253N22145 1915 33 WP MM NOT_NAMED 1915-09-11 21:00:00 NR 23.0341 143.757 main 1380 1367 __________P___ -1 23.0341 143.757 7 5 321
1915253N22145 1915 33 WP MM NOT_NAMED 1915-09-11 22:00:00 NR 23.1000 143.700 main 1367 1354 __________O___ -1 23.1000 143.700 7 5 322
1915253N22145 1915 33 WP MM NOT_NAMED 1915-09-12 00:00:00 NR 23.2464 143.581 main 1354 1316 __________P___ -1 23.2464 143.581 7 6 324
1915253N22145 1915 33 WP MM NOT_NAMED 1915-09-12 03:00:00 NR 23.4914 143.389 main 1316 1278 __________P___ -1 23.4914 143.389 7 6 324
1915253N22145 1915 33 WP MM NOT_NAMED 1915-09-12 06:00:00 NR 23.7528 143.185 main 1278 1250 __________P___ -1 23.7528 143.185 7 7 324
1915253N22145 1915 33 WP MM NOT_NAMED 1915-09-12 09:00:00 NR 24.0151 142.972 main 1250 1236 __________P___ -1 24.0151 142.972 7 7 323
1915253N22145 1915 33 WP MM NOT_NAMED 1915-09-12 10:00:00 NR 24.1000 142.900 main 1236 1212 __________O___ -1 24.1000 142.900 7 6 321
1915253N22145 1915 33 WP MM NOT_NAMED 1915-09-12 12:00:00 NR 24.2637 142.754 main 1212 1182 __________P___ -1 24.2637 142.754 7 6 320
1915253N22145 1915 33 WP MM NOT_NAMED 1915-09-12 15:00:00 NR 24.4957 142.531 main 1182 1155 __________P___ -1 24.4957 142.531 7 6 318
1915253N22145 1915 33 WP MM NOT_NAMED 1915-09-12 18:00:00 NR 24.7161 142.304 main 1155 1127 __________P___ -1 24.7161 142.304 7 6 316
1915253N22145 1915 33 WP MM NOT_NAMED 1915-09-12 21:00:00 NR 24.9295 142.076 main 1127 1113 __________P___ -1 24.9295 142.076 7 6 316
1915253N22145 1915 33 WP MM NOT_NAMED 1915-09-12 22:00:00 NR 25.0000 142.000 main 1113 __________O___ -1 25.0000 142.000 3 6 317

Digital Typhoon Data and Search

About IBTrACS Database

This database is a web-friendly format of International Best Track Archive for Climate Stewardship (IBTrACS), a global best track data archive curated by NOAA dating back to 1842.

Updated: 2021-10-08